Terminal Aerodrome Forecast
Issued by NWS

Home | Current Version | Previous Version | Text Only | Print | Product List | Glossary On
Versions: 1 2 3 4 5 6 7 8 9 10 11 12 13 14 15 16 17 18 19 20
000
FTUS42 KFFC 302321
TAFRYY
TAF
KRYY 302321Z 0100/0124 19008KT 6SM BR VCSH BKN050
      TEMPO 0100/0102 5SM -TSRA BR BKN050CB
     FM010400 17003KT P6SM SCT060 BKN250
     FM011400 21004KT P6SM BKN015
     FM011600 23007KT P6SM VCSH BKN025
     FM011700 23009KT 4SM -TSRA BKN030CB
     FM012000 23006KT P6SM VCSH OVC040
      AMD NOT SKED 0104/0112=

USA.gov is the U.S. government's official web portal to all federal, state and local government web resources and services.